Time;durP1;ratioP1;P1;durP2;ratioP2;P2;SDS_P1;SDS_P2;PMS_P1;PMS_P2;Temp;Humidity;BMP_temperature;BMP_pressure;BME280_temperature;BME280_humidity;BME280_pressure;Samples;Min_cycle;Max_cycle;Signal;HPM_P1;HPM_P2
2021/01/21 00:01:07;;;;;;;2.28;1.65;;;;;;;9.67;46.00;97120.22;5095165;28;20409;-65
2021/01/21 00:03:35;;;;;;;2.45;1.90;;;;;;;9.67;45.96;97122.84;5095103;28;20048;-65
2021/01/21 00:06:02;;;;;;;3.85;1.90;;;;;;;9.72;45.71;97116.09;5094830;28;20066;-65
2021/01/21 00:08:29;;;;;;;2.33;1.55;;;;;;;9.70;45.82;97107.56;5094047;28;20410;-65
2021/01/21 00:10:56;;;;;;;3.08;1.50;;;;;;;9.68;45.42;97111.25;5095077;28;20044;-66
2021/01/21 00:13:23;;;;;;;4.25;1.63;;;;;;;9.74;45.48;97124.56;5095444;28;20044;-66
2021/01/21 00:15:49;;;;;;;3.00;1.80;;;;;;;9.76;45.51;97118.03;5094611;28;20459;-66
2021/01/21 00:18:16;;;;;;;3.63;1.83;;;;;;;9.78;45.47;97109.88;5094669;28;20494;-66
2021/01/21 00:20:43;;;;;;;2.55;1.60;;;;;;;9.77;45.66;97111.72;5094984;28;20567;-64
2021/01/21 00:23:09;;;;;;;4.90;1.77;;;;;;;9.78;45.33;97112.50;5094784;28;20434;-65
2021/01/21 00:25:37;;;;;;;4.07;1.60;;;;;;;9.78;45.75;97101.97;5094525;28;20047;-65
2021/01/21 00:28:04;;;;;;;5.68;1.90;;;;;;;9.84;45.41;97093.94;5094747;28;20425;-65
2021/01/21 00:30:31;;;;;;;4.20;1.70;;;;;;;9.82;45.60;97097.84;5094667;28;20055;-66
2021/01/21 00:32:57;;;;;;;2.28;1.45;;;;;;;9.80;45.52;97097.28;5094706;28;20047;-66
2021/01/21 00:35:25;;;;;;;4.32;1.50;;;;;;;9.81;45.74;97086.47;5093656;28;20431;-65
2021/01/21 00:37:52;;;;;;;3.20;1.63;;;;;;;9.83;45.55;97089.69;5094590;28;20040;-65
2021/01/21 00:40:19;;;;;;;2.40;1.42;;;;;;;9.85;45.89;97087.63;5094469;28;20055;-63
2021/01/21 00:42:46;;;;;;;6.20;1.80;;;;;;;9.83;45.55;97084.41;5094542;28;20044;-66
2021/01/21 00:45:15;;;;;;;5.40;2.25;;;;;;;9.84;45.46;97074.66;5094236;28;20075;-65
2021/01/21 00:47:42;;;;;;;8.88;2.85;;;;;;;9.84;45.56;97072.84;5094391;28;20047;-63
2021/01/21 00:50:09;;;;;;;3.15;1.83;;;;;;;9.87;45.59;97071.56;5094498;28;20063;-65
2021/01/21 00:52:36;;;;;;;3.03;1.60;;;;;;;9.80;45.77;97057.69;5093961;28;20101;-65
2021/01/21 00:55:04;;;;;;;3.10;1.48;;;;;;;9.84;45.78;97056.19;5094019;28;20039;-65
2021/01/21 00:57:30;;;;;;;5.72;2.03;;;;;;;9.80;45.85;97055.84;5092825;28;20559;-65
2021/01/21 00:59:58;;;;;;;2.40;1.60;;;;;;;9.82;45.90;97051.13;5094236;28;20054;-63
2021/01/21 01:02:25;;;;;;;2.90;1.50;;;;;;;9.79;45.86;97046.31;5094371;28;20048;-63
2021/01/21 01:04:53;;;;;;;4.63;1.85;;;;;;;9.80;45.99;97055.84;5092836;28;20036;-63
2021/01/21 01:07:20;;;;;;;4.57;1.70;;;;;;;9.80;46.12;97062.97;5094307;28;20039;-63
2021/01/21 01:09:46;;;;;;;3.58;1.77;;;;;;;9.80;45.97;97058.50;5093004;28;20043;-63
2021/01/21 01:12:18;;;;;;;2.13;1.45;;;;;;;9.74;46.01;97051.47;5092746;28;20531;-63
2021/01/21 01:14:45;;;;;;;2.83;1.20;;;;;;;9.77;46.11;97056.31;5092260;28;20565;-64
2021/01/21 01:17:12;;;;;;;3.13;1.90;;;;;;;9.79;46.09;97053.41;5093791;28;20044;-66
2021/01/21 01:19:46;;;;;;;3.28;1.55;;;;;;;9.80;46.24;97049.78;5092562;28;20040;-63
2021/01/21 01:22:14;;;;;;;2.50;1.50;;;;;;;9.78;46.12;97060.53;5093677;28;20040;-63
2021/01/21 01:24:42;;;;;;;3.65;1.58;;;;;;;9.79;46.30;97053.41;5091935;28;20589;-64
2021/01/21 01:27:08;;;;;;;2.65;1.50;;;;;;;9.82;46.23;97055.59;5092280;28;20055;-63
2021/01/21 01:29:38;;;;;;;3.30;1.73;;;;;;;9.85;46.02;97049.88;5092135;28;20532;-63
2021/01/21 01:32:05;;;;;;;3.03;1.25;;;;;;;9.90;45.80;97056.06;5092193;28;20040;-64
2021/01/21 01:34:44;;;;;;;4.03;1.40;;;;;;;9.93;45.80;97049.53;5092096;28;20501;-63
2021/01/21 01:37:15;;;;;;;3.13;1.88;;;;;;;9.96;45.56;97046.44;5092236;28;20432;-64
2021/01/21 01:39:49;;;;;;;1.92;1.33;;;;;;;9.99;45.68;97027.47;5092167;28;20050;-63
2021/01/21 01:42:34;;;;;;;3.58;1.40;;;;;;;10.05;45.63;97031.84;5093158;28;20047;-63
2021/01/21 01:45:06;;;;;;;4.13;1.65;;;;;;;10.10;45.16;97024.00;5091183;28;20442;-64
2021/01/21 01:47:33;;;;;;;3.05;1.58;;;;;;;10.14;45.27;97021.72;5092576;28;20032;-64
2021/01/21 01:50:01;;;;;;;4.00;1.30;;;;;;;10.16;44.85;97019.63;5092996;28;20044;-64
2021/01/21 01:52:32;;;;;;;7.40;1.42;;;;;;;10.16;44.97;97019.63;5091844;28;20059;-64
2021/01/21 01:55:22;;;;;;;2.72;1.75;;;;;;;10.21;44.54;97003.91;5091504;28;20419;-64
2021/01/21 01:58:08;;;;;;;1.85;0.98;;;;;;;10.23;44.19;96998.38;5091545;28;20098;-64
2021/01/21 02:00:50;;;;;;;4.75;1.00;;;;;;;10.28;44.17;96988.75;5091771;28;20048;-64
2021/01/21 02:03:17;;;;;;;2.78;1.02;;;;;;;10.33;44.14;97011.84;5092923;28;20490;-64
2021/01/21 02:06:09;;;;;;;2.88;1.10;;;;;;;10.41;43.63;97000.91;5091261;28;20055;-64
2021/01/21 02:08:37;;;;;;;1.90;0.80;;;;;;;10.46;43.58;96979.84;5092853;28;20545;-64
2021/01/21 02:11:13;;;;;;;3.17;1.20;;;;;;;10.55;43.25;96964.44;5091472;28;20514;-64
2021/01/21 02:13:49;;;;;;;1.98;1.40;;;;;;;10.61;43.47;96963.47;5091503;28;20421;-64
2021/01/21 02:16:39;;;;;;;2.33;1.30;;;;;;;10.61;43.27;96968.75;5091553;28;20148;-64
2021/01/21 02:19:55;;;;;;;2.35;1.48;;;;;;;10.65;43.02;96960.13;5091492;28;20054;-64
2021/01/21 02:22:55;;;;;;;4.20;1.30;;;;;;;10.66;42.74;96943.22;5031261;28;20062;-64
2021/01/21 02:25:31;;;;;;;3.65;1.40;;;;;;;10.64;42.89;96950.59;5091149;28;20070;-64
2021/01/21 02:28:24;;;;;;;3.97;1.20;;;;;;;10.66;42.57;96947.72;5091365;28;20048;-64
2021/01/21 02:31:02;;;;;;;2.92;1.02;;;;;;;10.61;42.72;96948.44;5091203;28;20094;-64
2021/01/21 02:33:54;;;;;;;3.50;1.38;;;;;;;10.60;42.65;96953.94;5091255;28;20498;-64
2021/01/21 02:36:28;;;;;;;3.08;1.30;;;;;;;10.56;42.83;96956.25;5092216;28;20040;-64
2021/01/21 02:38:56;;;;;;;1.83;0.93;;;;;;;10.61;42.60;96953.72;5091243;28;20051;-64
2021/01/21 02:41:33;;;;;;;4.63;1.20;;;;;;;10.59;42.97;96944.41;5092581;28;20040;-66
2021/01/21 02:44:01;;;;;;;2.10;1.20;;;;;;;10.55;42.86;96951.22;5092778;28;20391;-63
2021/01/21 02:46:29;;;;;;;5.63;1.20;;;;;;;10.59;42.69;96939.13;5090996;28;20044;-64
2021/01/21 02:48:58;;;;;;;0.95;0.90;;;;;;;10.57;43.00;96925.34;5091882;28;20051;-64
2021/01/21 02:51:37;;;;;;;1.85;1.00;;;;;;;10.57;42.73;96928.81;5090991;28;20048;-64
2021/01/21 02:54:23;;;;;;;3.38;1.15;;;;;;;10.57;42.77;96939.38;5092144;28;20067;-64
2021/01/21 02:56:56;;;;;;;2.72;1.13;;;;;;;10.59;43.05;96928.56;5090432;28;20131;-64
2021/01/21 02:59:30;;;;;;;1.35;0.98;;;;;;;10.57;43.17;96922.69;5092404;28;20044;-64
2021/01/21 03:01:57;;;;;;;;;;;;;;;10.58;43.17;96929.59;5092829;28;20559;-64
2021/01/21 03:04:25;;;;;;;2.70;0.95;;;;;;;10.62;43.37;96928.88;5092112;28;19971;-64
2021/01/21 03:06:57;;;;;;;2.00;1.30;;;;;;;10.69;43.20;96926.06;5091514;28;20571;-63
2021/01/21 03:09:36;;;;;;;8.50;1.83;;;;;;;10.69;43.23;96931.38;5091100;28;20047;-64
2021/01/21 03:12:17;;;;;;;1.85;0.95;;;;;;;10.74;43.13;96917.47;5092388;28;20123;-64
2021/01/21 03:14:45;;;;;;;2.00;0.90;;;;;;;10.78;43.24;96927.31;5091219;28;20079;-64
2021/01/21 03:17:13;;;;;;;1.95;0.90;;;;;;;10.81;43.49;96910.16;5091439;28;20044;-64
2021/01/21 03:19:46;;;;;;;2.45;0.80;;;;;;;10.85;43.37;96925.28;5091469;28;20044;-64
2021/01/21 03:22:16;;;;;;;1.65;1.30;;;;;;;10.85;43.58;96921.84;5091078;28;20048;-64
2021/01/21 03:24:43;;;;;;;4.72;1.15;;;;;;;10.89;43.45;96933.53;5090997;28;20050;-64
2021/01/21 03:27:15;;;;;;;2.90;1.02;;;;;;;10.87;43.58;96943.56;5092144;28;20075;-64
2021/01/21 03:29:42;;;;;;;2.40;0.90;;;;;;;10.88;43.74;96926.66;5092084;28;20071;-64
2021/01/21 03:32:15;;;;;;;1.45;0.80;;;;;;;10.91;43.81;96921.69;5091560;28;20048;-64
2021/01/21 03:34:55;;;;;;;2.33;1.00;;;;;;;10.95;43.79;96929.16;5091282;28;20043;-64
2021/01/21 03:37:22;;;;;;;3.00;1.50;;;;;;;10.94;44.19;96923.06;5093077;28;20056;-64
2021/01/21 03:39:50;;;;;;;6.65;1.13;;;;;;;10.96;44.07;96928.13;5090878;28;20055;-64
2021/01/21 03:42:43;;;;;;;1.38;1.02;;;;;;;10.98;44.32;96928.66;5091108;28;20109;-64
2021/01/21 03:45:32;;;;;;;2.95;0.90;;;;;;;10.94;44.57;96928.38;5090433;28;20048;-64
2021/01/21 03:48:08;;;;;;;2.53;1.05;;;;;;;10.95;45.27;96950.31;5090611;28;20047;-64
2021/01/21 03:50:55;;;;;;;7.88;1.25;;;;;;;10.92;45.82;96943.66;5094321;28;20040;-64
2021/01/21 03:53:22;;;;;;;4.97;1.20;;;;;;;10.94;46.11;96943.41;5094652;28;20048;-64
2021/01/21 03:56:05;;;;;;;1.52;1.10;;;;;;;10.93;46.71;96933.88;5094979;28;20048;-64
2021/01/21 03:58:33;;;;;;;2.30;1.00;;;;;;;10.89;47.02;96944.13;5091762;28;20118;-64
2021/01/21 04:01:08;;;;;;;1.55;0.90;;;;;;;10.84;48.46;96944.84;5090483;28;20481;-64
2021/01/21 04:03:35;;;;;;;1.27;0.90;;;;;;;10.75;49.43;96943.63;5090526;28;20040;-64
2021/01/21 04:06:06;;;;;;;1.92;1.30;;;;;;;10.66;50.10;96943.22;5089833;28;20529;-63
2021/01/21 04:08:32;;;;;;;1.48;1.00;;;;;;;10.60;50.56;96952.09;5091495;28;20119;-63
2021/01/21 04:11:21;;;;;;;3.22;1.10;;;;;;;10.52;51.09;96933.97;5095437;28;20071;-64
2021/01/21 04:13:54;;;;;;;;;;;;;;;10.50;51.63;96945.84;5094759;28;20068;-64
2021/01/21 04:16:22;;;;;;;3.45;1.40;;;;;;;10.43;51.76;96942.53;5094407;28;19920;-64
2021/01/21 04:18:50;;;;;;;3.95;1.38;;;;;;;10.40;52.41;96930.59;5094979;28;20044;-64
2021/01/21 04:21:21;;;;;;;4.10;1.40;;;;;;;10.39;52.28;96921.06;5094862;28;20093;-63
2021/01/21 04:23:54;;;;;;;3.88;1.15;;;;;;;10.32;52.58;96925.69;5093902;28;20513;-63
2021/01/21 04:26:31;;;;;;;3.17;1.33;;;;;;;10.27;52.70;96913.19;5093388;28;20048;-63
2021/01/21 04:28:59;;;;;;;2.95;1.20;;;;;;;10.27;52.63;96928.25;5093522;28;20048;-63
2021/01/21 04:31:26;;;;;;;2.20;1.30;;;;;;;10.32;52.70;96921.22;5094867;28;20064;-63
2021/01/21 04:33:56;;;;;;;1.55;1.27;;;;;;;10.28;52.62;96927.22;5093753;28;20036;-65
2021/01/21 04:36:27;;;;;;;2.22;0.90;;;;;;;10.27;52.37;96928.25;5093158;28;20416;-65
2021/01/21 04:38:55;;;;;;;2.30;0.93;;;;;;;10.28;52.16;96930.66;5093320;28;20060;-65
2021/01/21 04:41:24;;;;;;;3.83;1.00;;;;;;;10.32;51.63;96937.06;5093420;28;20529;-65
2021/01/21 04:43:51;;;;;;;1.63;0.75;;;;;;;10.36;51.37;96938.19;5094483;28;20192;-64
2021/01/21 04:46:28;;;;;;;2.22;0.98;;;;;;;10.39;51.29;96936.94;5093011;28;20127;-64
2021/01/21 04:48:57;;;;;;;1.10;1.00;;;;;;;10.41;51.43;96930.38;5094441;28;20448;-64
2021/01/21 04:51:24;;;;;;;3.80;1.30;;;;;;;10.43;51.24;96953.09;5093031;28;20051;-64
2021/01/21 04:54:07;;;;;;;1.38;0.90;;;;;;;10.48;51.06;96937.34;5093229;28;20111;-65
2021/01/21 04:56:56;;;;;;;2.17;0.75;;;;;;;10.51;50.63;96934.22;5093015;28;20101;-66
2021/01/21 04:59:36;;;;;;;1.67;0.90;;;;;;;10.55;50.74;96924.78;5093015;28;20498;-66
2021/01/21 05:02:05;;;;;;;3.38;1.00;;;;;;;10.52;51.09;96922.63;5093063;28;20455;-65
2021/01/21 05:04:34;;;;;;;2.40;0.98;;;;;;;10.53;51.06;96927.69;5092658;28;20048;-65
2021/01/21 05:07:25;;;;;;;0.95;0.90;;;;;;;10.56;51.02;96921.09;5093833;28;20048;-65
2021/01/21 05:09:55;;;;;;;2.28;1.15;;;;;;;10.57;51.24;96918.25;5092808;28;20102;-65
2021/01/21 05:12:23;;;;;;;3.13;1.08;;;;;;;10.57;51.23;96918.25;5092931;28;20051;-65
2021/01/21 05:15:06;;;;;;;3.00;1.10;;;;;;;10.61;51.26;96915.91;5092486;28;20047;-65
2021/01/21 05:18:08;;;;;;;1.45;0.90;;;;;;;10.59;51.44;96902.13;5093752;28;20536;-65
2021/01/21 05:20:53;;;;;;;1.33;0.98;;;;;;;10.59;51.45;96910.88;5092354;28;20048;-66
2021/01/21 05:23:39;;;;;;;1.92;1.17;;;;;;;10.61;51.60;96894.75;5093980;28;20101;-65
2021/01/21 05:26:22;;;;;;;1.95;1.15;;;;;;;10.62;51.59;96893.75;5092147;28;20056;-65
2021/01/21 05:29:01;;;;;;;3.30;1.13;;;;;;;10.60;51.69;96866.75;5092536;28;20048;-65
2021/01/21 05:31:35;;;;;;;;;;;;;;;10.57;52.10;96885.72;5092960;28;20046;-65
2021/01/21 05:34:07;;;;;;;3.25;1.20;;;;;;;10.61;51.97;96900.03;5092400;28;19919;-65
2021/01/21 05:36:56;;;;;;;0.90;0.90;;;;;;;10.61;52.36;96889.47;5093742;28;20058;-66
2021/01/21 05:39:36;;;;;;;1.73;0.98;;;;;;;10.64;52.18;96879.22;5092184;28;20050;-65
2021/01/21 05:42:23;;;;;;;0.98;0.88;;;;;;;10.61;52.22;96869.16;5093710;28;20132;-64
2021/01/21 05:45:08;;;;;;;8.35;1.38;;;;;;;10.65;52.14;96862.38;5091876;28;20090;-65
2021/01/21 05:47:57;;;;;;;1.05;0.90;;;;;;;10.64;52.58;96859.94;5093350;28;20074;-65
2021/01/21 05:50:25;;;;;;;1.15;0.95;;;;;;;10.68;52.30;96852.34;5091908;28;20044;-65
2021/01/21 05:52:53;;;;;;;1.85;1.25;;;;;;;10.67;52.38;96864.75;5091868;28;20521;-65
2021/01/21 05:55:22;;;;;;;1.83;0.93;;;;;;;10.68;52.46;96857.63;5091641;28;20040;-66
2021/01/21 05:57:54;;;;;;;4.00;1.02;;;;;;;10.68;52.77;96853.13;5093414;28;20059;-66
2021/01/21 06:00:25;;;;;;;1.83;0.95;;;;;;;10.73;52.73;96852.41;5091894;28;20048;-66
2021/01/21 06:03:08;;;;;;;3.38;2.25;;;;;;;10.73;52.65;96858.50;5091876;28;20044;-66
2021/01/21 06:05:52;;;;;;;4.18;0.98;;;;;;;10.73;52.89;96882.28;5091350;28;20040;-66
2021/01/21 06:08:21;;;;;;;2.70;1.17;;;;;;;10.76;52.81;96873.88;5091554;28;20048;-66
2021/01/21 06:10:51;;;;;;;1.75;0.80;;;;;;;10.74;52.88;96875.19;5093034;28;20036;-65
2021/01/21 06:13:19;;;;;;;2.70;1.23;;;;;;;10.80;52.92;96876.84;5093061;28;20054;-66
2021/01/21 06:15:46;;;;;;;2.00;0.98;;;;;;;10.82;53.18;96862.34;5093107;28;20111;-66
2021/01/21 06:18:13;;;;;;;1.02;0.93;;;;;;;10.79;53.32;96873.41;5093218;28;20443;-66
2021/01/21 06:20:49;;;;;;;1.13;1.00;;;;;;;10.85;52.94;96883.00;5091589;28;20048;-66
2021/01/21 06:23:43;;;;;;;1.25;1.00;;;;;;;10.84;53.18;96894.63;5092042;28;20048;-66
2021/01/21 06:26:34;;;;;;;1.17;0.80;;;;;;;10.85;53.48;96896.22;5091433;28;20048;-66
2021/01/21 06:29:02;;;;;;;2.80;1.10;;;;;;;10.87;53.29;96874.84;5091938;28;20497;-66
2021/01/21 06:31:30;;;;;;;1.05;0.95;;;;;;;10.85;53.74;96898.84;5092066;28;20052;-66
2021/01/21 06:33:59;;;;;;;1.33;1.00;;;;;;;10.82;54.05;96906.50;5092651;28;20036;-65
2021/01/21 06:36:27;;;;;;;5.95;1.27;;;;;;;10.84;54.30;96907.03;5092280;28;20040;-66
2021/01/21 06:38:59;;;;;;;4.28;1.08;;;;;;;10.85;54.44;96921.84;5092784;28;20054;-66
2021/01/21 06:41:28;;;;;;;3.45;0.70;;;;;;;10.80;55.06;96927.84;5092685;28;20051;-66
2021/01/21 06:43:55;;;;;;;2.67;1.10;;;;;;;10.79;55.18;96905.13;5093035;28;20066;-64
2021/01/21 06:46:23;;;;;;;0.95;0.85;;;;;;;10.78;55.22;96914.09;5092278;28;20532;-63
2021/01/21 06:48:51;;;;;;;1.42;0.90;;;;;;;10.78;55.37;96916.75;5092744;28;20040;-64
2021/01/21 06:51:21;;;;;;;1.67;1.27;;;;;;;10.75;55.84;96922.50;5093199;28;20067;-65
2021/01/21 06:53:51;;;;;;;0.98;0.73;;;;;;;10.71;56.38;96925.84;5092972;28;20048;-64
2021/01/21 06:56:18;;;;;;;2.03;0.90;;;;;;;10.65;56.30;96909.94;5092676;28;20138;-64
2021/01/21 06:58:47;;;;;;;3.38;1.17;;;;;;;10.61;56.70;96914.09;5092702;28;20384;-64
2021/01/21 07:01:46;;;;;;;2.72;1.25;;;;;;;10.62;56.79;96906.97;5092632;28;20040;-64
2021/01/21 07:04:27;;;;;;;1.45;1.35;;;;;;;10.57;56.95;96891.00;5092221;28;20072;-64
2021/01/21 07:07:15;;;;;;;1.92;1.20;;;;;;;10.52;57.15;96870.59;5092505;28;20063;-63
2021/01/21 07:09:42;;;;;;;3.92;1.30;;;;;;;10.50;56.96;96887.72;5092273;28;20054;-64
2021/01/21 07:12:18;;;;;;;1.95;1.10;;;;;;;10.52;57.17;96873.22;5092263;28;20661;-63
2021/01/21 07:14:48;;;;;;;2.58;1.23;;;;;;;10.53;57.15;96868.72;5091903;28;20502;-63
2021/01/21 07:17:16;;;;;;;3.10;1.40;;;;;;;10.52;57.28;96893.56;5092085;28;20520;-64
2021/01/21 07:19:45;;;;;;;1.35;1.10;;;;;;;10.51;57.35;96884.03;5091903;28;20387;-64
2021/01/21 07:22:24;;;;;;;2.00;1.02;;;;;;;10.52;57.50;96893.56;5092035;28;20044;-64
2021/01/21 07:24:56;;;;;;;3.75;1.50;;;;;;;10.49;57.72;96894.03;5091655;28;20044;-64
2021/01/21 07:27:25;;;;;;;3.38;1.00;;;;;;;10.55;57.56;96903.66;5090763;28;20091;-64
2021/01/21 07:30:16;;;;;;;;;;;;;;;10.51;57.44;96900.69;5092385;28;20036;-64
2021/01/21 07:32:47;;;;;;;1.73;1.13;;;;;;;10.58;57.53;96905.81;5092288;28;19920;-64
2021/01/21 07:35:38;;;;;;;4.13;1.10;;;;;;;10.66;57.31;96893.03;5091750;28;20459;-65
2021/01/21 07:38:05;;;;;;;2.08;1.10;;;;;;;10.78;57.28;96903.53;5091631;28;20040;-65
2021/01/21 07:40:47;;;;;;;3.80;1.23;;;;;;;10.77;57.41;96898.47;5092108;28;20044;-65
2021/01/21 07:43:15;;;;;;;2.40;1.10;;;;;;;10.76;57.20;96899.50;5092971;28;20032;-65
2021/01/21 07:46:25;;;;;;;2.05;1.10;;;;;;;10.74;57.88;96912.97;5095097;28;20071;-65
2021/01/21 07:49:07;;;;;;;;;;;;;;;10.72;58.74;96909.75;5095937;28;20497;-65
2021/01/21 07:51:35;;;;;;;2.33;1.17;;;;;;;10.66;59.40;96908.88;5095454;28;19920;-65
2021/01/21 07:54:03;;;;;;;1.60;1.20;;;;;;;10.61;59.90;96908.81;5095492;28;20047;-65
2021/01/21 07:56:31;;;;;;;1.85;1.15;;;;;;;10.56;60.24;96913.19;5095041;28;20822;-65
2021/01/21 07:59:01;;;;;;;1.40;0.93;;;;;;;10.55;60.46;96925.59;5095383;28;20036;-65
2021/01/21 08:01:28;;;;;;;0.82;0.80;;;;;;;10.60;60.15;96922.22;5095423;28;20040;-65
2021/01/21 08:03:54;;;;;;;2.38;1.00;;;;;;;10.61;59.83;96929.13;5095192;28;20433;-65
2021/01/21 08:06:22;;;;;;;1.10;0.90;;;;;;;10.63;59.89;96933.13;5094792;28;20485;-65
2021/01/21 08:08:51;;;;;;;2.72;0.90;;;;;;;10.64;60.34;96952.41;5095161;28;20452;-65
2021/01/21 08:11:19;;;;;;;1.65;1.00;;;;;;;10.56;62.18;96943.03;5093844;28;20044;-65
2021/01/21 08:13:47;;;;;;;1.38;1.00;;;;;;;10.39;63.11;96942.22;5095155;28;20133;-65
2021/01/21 08:16:15;;;;;;;2.70;0.80;;;;;;;10.25;64.37;96954.09;5094981;28;20071;-65
2021/01/21 08:18:43;;;;;;;1.00;0.90;;;;;;;10.25;64.68;96943.53;5094938;28;20093;-65
2021/01/21 08:21:20;;;;;;;2.20;1.20;;;;;;;10.21;64.98;96953.75;5094928;28;20585;-65
2021/01/21 08:23:56;;;;;;;1.85;1.00;;;;;;;10.22;65.55;96965.09;5094984;28;20097;-64
2021/01/21 08:26:23;;;;;;;1.30;1.00;;;;;;;10.15;65.34;96950.19;5094754;28;20044;-64
2021/01/21 08:28:50;;;;;;;1.92;0.95;;;;;;;10.14;65.74;96972.34;5094883;28;20046;-64
2021/01/21 08:31:19;;;;;;;1.08;0.93;;;;;;;10.11;66.37;96974.66;5095105;28;20063;-64
2021/01/21 08:33:51;;;;;;;1.63;1.10;;;;;;;10.06;67.11;96979.84;5093635;28;20142;-65
2021/01/21 08:36:23;;;;;;;2.47;1.00;;;;;;;10.00;68.00;96980.75;5094730;28;20050;-65
2021/01/21 08:38:52;;;;;;;1.42;1.00;;;;;;;9.94;68.28;96971.94;5094768;28;20059;-65
2021/01/21 08:41:20;;;;;;;1.35;1.10;;;;;;;9.86;69.16;96985.50;5094734;28;20048;-65
2021/01/21 08:43:48;;;;;;;1.63;1.08;;;;;;;9.87;69.22;96974.69;5094769;28;20501;-65
2021/01/21 08:46:16;;;;;;;1.20;0.88;;;;;;;9.84;69.48;96984.94;5094355;28;20059;-65
2021/01/21 08:48:44;;;;;;;1.50;1.08;;;;;;;9.81;69.74;96980.91;5093101;28;20070;-65
2021/01/21 08:51:24;;;;;;;2.03;1.10;;;;;;;9.82;69.59;96982.50;5094368;28;20465;-65
2021/01/21 08:53:51;;;;;;;2.05;1.13;;;;;;;9.88;69.53;96988.72;5093272;28;20044;-65
2021/01/21 08:56:18;;;;;;;3.15;1.30;;;;;;;9.92;69.82;97001.22;5092230;28;20161;-66
2021/01/21 08:58:45;;;;;;;1.33;1.05;;;;;;;9.99;69.32;96993.16;5094366;28;20050;-66
2021/01/21 09:01:12;;;;;;;3.08;1.00;;;;;;;9.93;69.51;96992.25;5094470;28;20119;-63
2021/01/21 09:03:45;;;;;;;1.98;1.05;;;;;;;9.91;69.71;96996.94;5094872;28;20036;-65
2021/01/21 09:06:13;;;;;;;1.27;0.93;;;;;;;9.89;69.54;97003.50;5094196;28;20098;-64
2021/01/21 09:08:47;;;;;;;1.65;1.17;;;;;;;9.98;68.92;96996.03;5094702;28;20044;-65
2021/01/21 09:11:28;;;;;;;2.17;0.82;;;;;;;9.87;69.62;97009.00;5093121;28;20132;-65
2021/01/21 09:13:56;;;;;;;14.77;9.65;;;;;;;9.90;69.54;97011.19;5094354;28;20048;-65
2021/01/21 09:16:42;;;;;;;2.40;1.60;;;;;;;9.91;69.54;97023.34;5093647;28;20062;-65
2021/01/21 09:19:10;;;;;;;2.58;1.05;;;;;;;9.92;69.28;97019.69;5094032;28;20050;-65
2021/01/21 09:21:37;;;;;;;2.83;1.60;;;;;;;9.93;69.51;97013.38;5093683;28;20055;-65
2021/01/21 09:24:05;;;;;;;2.22;2.03;;;;;;;9.93;69.81;97028.41;5093788;28;20048;-65
2021/01/21 09:26:32;;;;;;;1.88;1.55;;;;;;;9.95;69.57;97028.97;5093512;28;20044;-65
2021/01/21 09:29:00;;;;;;;2.08;1.58;;;;;;;9.97;69.72;97042.75;5094007;28;20040;-65
2021/01/21 09:31:29;;;;;;;1.30;1.20;;;;;;;10.01;69.42;97032.53;5094204;28;20406;-65
2021/01/21 09:33:56;;;;;;;4.05;2.17;;;;;;;9.99;69.57;97037.22;5094098;28;20131;-65
2021/01/21 09:36:26;;;;;;;2.83;1.90;;;;;;;10.05;69.18;97039.75;5093182;28;20426;-65
2021/01/21 09:38:54;;;;;;;2.17;1.98;;;;;;;10.01;69.43;97045.72;5093636;28;20068;-65
2021/01/21 09:41:21;;;;;;;1.95;1.80;;;;;;;9.96;69.73;97079.91;5093548;28;20040;-65
2021/01/21 09:43:48;;;;;;;7.43;4.32;;;;;;;9.85;70.44;97129.84;5093419;28;20044;-65
2021/01/21 09:46:22;;;;;;;6.25;3.13;;;;;;;9.21;72.30;97135.91;5093108;28;20040;-66
2021/01/21 09:48:49;;;;;;;8.18;3.78;;;;;;;8.67;75.20;97144.50;5093433;28;20070;-65
2021/01/21 09:51:15;;;;;;;9.00;5.13;;;;;;;8.36;75.81;97163.03;5093754;28;20093;-66
2021/01/21 09:53:42;;;;;;;8.10;4.63;;;;;;;8.11;76.31;97165.72;5092987;28;20070;-66
2021/01/21 09:56:09;;;;;;;6.53;2.83;;;;;;;8.00;76.90;97179.56;5093536;28;20537;-66
2021/01/21 09:58:37;;;;;;;11.65;6.03;;;;;;;7.95;77.28;97175.75;5092164;28;20501;-68
2021/01/21 10:01:04;;;;;;;6.57;3.92;;;;;;;7.97;77.50;97190.53;5093362;28;20547;-67
2021/01/21 10:03:48;;;;;;;8.02;5.00;;;;;;;7.83;77.11;97197.72;5093961;28;20048;-67
2021/01/21 10:06:15;;;;;;;3.25;1.67;;;;;;;7.72;75.48;97215.00;5094897;28;20063;-68
2021/01/21 10:08:41;;;;;;;5.07;3.47;;;;;;;7.56;75.65;97203.19;5094914;28;20568;-68
2021/01/21 10:11:08;;;;;;;5.40;4.03;;;;;;;7.60;75.17;97199.09;5093471;28;20055;-67
2021/01/21 10:13:35;;;;;;;9.35;4.60;;;;;;;7.58;74.61;97198.50;5093507;28;20036;-68
2021/01/21 10:16:03;;;;;;;5.60;3.13;;;;;;;7.64;74.25;97210.00;5092731;28;20343;-68
2021/01/21 10:18:30;;;;;;;4.97;3.05;;;;;;;7.56;74.26;97205.81;5092087;28;20048;-67
2021/01/21 10:20:57;;;;;;;6.57;4.63;;;;;;;7.56;74.46;97213.69;5093221;28;20046;-67
2021/01/21 10:23:24;;;;;;;5.22;3.00;;;;;;;7.48;74.41;97213.94;5094349;28;20044;-67
2021/01/21 10:25:51;;;;;;;5.85;3.72;;;;;;;7.47;74.13;97214.97;5093020;28;20111;-67
2021/01/21 10:28:18;;;;;;;2.28;1.63;;;;;;;7.45;74.30;97206.47;5092972;28;20047;-67
2021/01/21 10:30:45;;;;;;;3.70;1.65;;;;;;;7.54;73.91;97212.28;5092674;28;20524;-67
2021/01/21 10:33:11;;;;;;;0.82;0.82;;;;;;;7.61;73.88;97203.34;5093233;28;20046;-67
2021/01/21 10:35:38;;;;;;;1.52;0.60;;;;;;;7.69;73.79;97208.34;5092482;28;20516;-67
2021/01/21 10:38:06;;;;;;;4.07;0.80;;;;;;;7.62;73.36;97212.03;5092495;28;20048;-67
2021/01/21 10:40:33;;;;;;;1.58;1.23;;;;;;;7.63;73.52;97219.72;5091245;28;20097;-68
2021/01/21 10:43:00;;;;;;;1.92;1.02;;;;;;;7.71;73.03;97223.91;5092480;28;20097;-68
2021/01/21 10:45:27;;;;;;;1.60;0.77;;;;;;;7.93;72.75;97209.38;5092025;28;20032;-67
2021/01/21 10:47:57;;;;;;;0.93;0.80;;;;;;;8.05;72.43;97212.13;5092436;28;20068;-67
2021/01/21 10:50:24;;;;;;;1.65;0.63;;;;;;;8.03;71.97;97215.97;5092395;28;20510;-67
2021/01/21 10:52:52;;;;;;;1.15;0.90;;;;;;;8.04;72.39;97215.78;5092606;28;20494;-68
2021/01/21 10:55:20;;;;;;;2.55;1.90;;;;;;;8.11;72.27;97215.72;5092274;28;20075;-67
2021/01/21 10:57:48;;;;;;;2.47;0.68;;;;;;;8.09;72.35;97212.50;5092625;28;20050;-67
2021/01/21 11:00:19;;;;;;;1.23;0.60;;;;;;;8.04;72.62;97228.09;5092379;28;20044;-67
2021/01/21 11:02:46;;;;;;;2.13;0.82;;;;;;;8.01;72.28;97216.22;5092616;28;20052;-67
2021/01/21 11:05:15;;;;;;;4.03;1.73;;;;;;;7.95;71.76;97225.75;5092293;28;20047;-67
2021/01/21 11:07:42;;;;;;;1.77;1.05;;;;;;;7.88;71.59;97217.13;5092340;28;20040;-66
2021/01/21 11:10:09;;;;;;;2.67;0.80;;;;;;;7.85;70.62;97233.31;5092289;28;20040;-66
2021/01/21 11:12:48;;;;;;;2.72;1.42;;;;;;;7.82;70.29;97231.09;5092257;28;20120;-66
2021/01/21 11:15:15;;;;;;;3.90;1.00;;;;;;;7.81;70.02;97233.97;5092166;28;20093;-67
2021/01/21 11:17:43;;;;;;;2.25;0.73;;;;;;;7.86;69.97;97229.66;5092585;28;20051;-68
2021/01/21 11:20:12;;;;;;;1.10;1.00;;;;;;;7.77;69.74;97230.94;5096702;28;20082;-68
2021/01/21 11:22:39;;;;;;;2.00;0.90;;;;;;;7.80;69.99;97232.38;5095203;28;20044;-67
2021/01/21 11:25:08;;;;;;;0.70;0.70;;;;;;;7.88;70.24;97234.72;5096353;28;20043;-66
2021/01/21 11:27:56;;;;;;;1.38;0.60;;;;;;;7.83;70.04;97230.09;5096182;28;20064;-66
2021/01/21 11:30:24;;;;;;;3.13;0.90;;;;;;;7.83;70.60;97226.66;5096293;28;20498;-66
2021/01/21 11:32:50;;;;;;;4.20;1.35;;;;;;;7.93;70.67;97229.63;5096116;28;20051;-67
2021/01/21 11:35:18;;;;;;;1.95;0.70;;;;;;;7.93;70.77;97225.16;5095697;28;20082;-67
2021/01/21 11:37:45;;;;;;;1.40;0.75;;;;;;;7.86;70.71;97228.88;5095880;28;20048;-66
2021/01/21 11:40:12;;;;;;;3.95;1.13;;;;;;;7.89;70.89;97239.78;5095905;28;20044;-67
2021/01/21 11:42:39;;;;;;;2.80;1.25;;;;;;;7.86;71.09;97236.75;5094910;28;20059;-67
2021/01/21 11:45:08;;;;;;;2.85;0.95;;;;;;;7.80;70.73;97235.78;5095627;28;20044;-67
2021/01/21 11:47:39;;;;;;;1.15;0.68;;;;;;;7.76;70.80;97220.66;5095789;28;20422;-67
2021/01/21 11:50:09;;;;;;;3.15;0.82;;;;;;;7.79;70.79;97228.09;5095848;28;20075;-67
2021/01/21 11:52:35;;;;;;;2.13;0.82;;;;;;;7.75;70.96;97230.34;5096008;28;20555;-67
2021/01/21 11:55:03;;;;;;;2.70;1.10;;;;;;;7.77;70.67;97228.31;5095364;28;20047;-67
2021/01/21 11:57:30;;;;;;;5.60;0.90;;;;;;;7.80;70.18;97240.25;5094409;28;20052;-67
2021/01/21 12:00:01;;;;;;;1.52;0.80;;;;;;;7.74;69.97;97247.16;5095509;28;20059;-67
2021/01/21 12:02:31;;;;;;;4.18;1.13;;;;;;;7.68;69.98;97251.44;5095626;28;20106;-67